Time;durP1;ratioP1;P1;durP2;ratioP2;P2;SDS_P1;SDS_P2;PMS_P1;PMS_P2;Temp;Humidity;BMP_temperature;BMP_pressure;BME280_temperature;BME280_humidity;BME280_pressure;Samples;Min_cycle;Max_cycle;Signal;HPM_P1;HPM_P2
2023/05/02 00:01:50;;;;;;;2.92;1.70;;;15.00;71.20;;;;;;2231244;56;20940;-68
2023/05/02 00:04:17;;;;;;;2.72;1.37;;;15.00;71.30;;;;;;2231108;56;20988;-70
2023/05/02 00:06:45;;;;;;;3.50;1.80;;;15.00;71.40;;;;;;2237335;56;21328;-70
2023/05/02 00:09:14;;;;;;;2.75;1.58;;;15.00;71.40;;;;;;2232776;56;20969;-68
2023/05/02 00:11:41;;;;;;;2.80;1.50;;;14.90;71.40;;;;;;2453559;55;20980;-67
2023/05/02 00:14:07;;;;;;;4.00;1.50;;;14.90;71.40;;;;;;2232125;56;21036;-69
2023/05/02 00:16:34;;;;;;;2.97;1.40;;;14.90;71.40;;;;;;2230931;56;20977;-68
2023/05/02 00:19:01;;;;;;;2.47;1.40;;;14.90;71.40;;;;;;2231685;56;21792;-71
2023/05/02 00:21:28;;;;;;;2.92;1.70;;;14.80;71.40;;;;;;2230637;56;21867;-68
2023/05/02 00:23:57;;;;;;;2.97;1.40;;;14.80;71.30;;;;;;2453605;55;21028;-69
2023/05/02 00:26:25;;;;;;;3.53;1.65;;;14.80;71.30;;;;;;2453366;55;20981;-68
2023/05/02 00:28:53;;;;;;;3.70;1.70;;;14.80;71.30;;;;;;2454117;55;21453;-72
2023/05/02 00:31:21;;;;;;;5.30;1.85;;;14.70;71.30;;;;;;2231121;56;21057;-71
2023/05/02 00:33:47;;;;;;;3.28;1.60;;;14.70;71.30;;;;;;2231648;56;21022;-69
2023/05/02 00:36:15;;;;;;;3.15;1.90;;;14.60;72.00;;;;;;2231689;56;21036;-72
2023/05/02 00:38:44;;;;;;;3.10;1.70;;;14.60;71.20;;;;;;2451443;55;20953;-69
2023/05/02 00:41:10;;;;;;;3.17;1.83;;;14.50;71.20;;;;;;2231482;56;20949;-69
2023/05/02 00:43:41;;;;;;;2.53;1.50;;;14.50;71.20;;;;;;2240450;56;21020;-69
2023/05/02 00:46:07;;;;;;;4.05;1.55;;;14.50;71.20;;;;;;2456600;55;20953;-70
2023/05/02 00:48:34;;;;;;;3.33;1.90;;;14.50;71.30;;;;;;2230868;56;20990;-71
2023/05/02 00:51:03;;;;;;;3.95;1.92;;;14.40;71.20;;;;;;2232147;56;20974;-70
2023/05/02 00:53:30;;;;;;;3.45;1.95;;;14.40;71.10;;;;;;2453045;55;21599;-70
2023/05/02 00:55:59;;;;;;;3.00;1.83;;;14.40;71.30;;;;;;2241497;56;21060;-71
2023/05/02 00:58:26;;;;;;;3.55;1.58;;;14.40;71.20;;;;;;2233995;56;20952;-71
2023/05/02 01:01:13;;;;;;;3.37;1.70;;;14.30;71.20;;;;;;2230021;56;21036;-69
2023/05/02 01:04:10;;;;;;;3.28;1.87;;;14.30;70.60;;;;;;2231231;56;20967;-71
2023/05/02 01:09:25;;;;;;;3.92;1.70;;;14.30;70.60;;;;;;2458153;55;21004;-70
2023/05/02 01:12:04;;;;;;;5.90;1.73;;;14.30;70.90;;;;;;2454597;55;21493;-70
2023/05/02 01:14:33;;;;;;;2.53;1.50;;;14.20;70.80;;;;;;2231145;56;20958;-71
2023/05/02 01:17:03;;;;;;;3.15;1.70;;;14.20;71.20;;;;;;2454248;55;21033;-72
2023/05/02 01:19:44;;;;;;;17.33;10.27;;;14.20;71.20;;;;;;2231041;56;20969;-70
2023/05/02 01:22:10;;;;;;;15.43;8.90;;;14.10;71.20;;;;;;2451404;55;20989;-71
2023/05/02 01:26:19;;;;;;;15.48;8.57;;;14.00;71.30;;;;;;2230993;56;20949;-72
2023/05/02 01:29:07;;;;;;;9.80;5.90;;;14.00;70.10;;;;;;2453976;55;21776;-71
2023/05/02 01:31:38;;;;;;;7.50;4.50;;;14.00;70.50;;;;;;2453667;55;21808;-71
2023/05/02 01:34:05;;;;;;;6.65;3.50;;;13.90;71.10;;;;;;2231808;56;21882;-70
2023/05/02 01:36:32;;;;;;;5.22;3.30;;;13.90;71.40;;;;;;2453765;55;21879;-70
2023/05/02 01:38:59;;;;;;;5.28;2.72;;;13.90;71.40;;;;;;2453694;55;21029;-70
2023/05/02 01:41:26;;;;;;;3.95;2.35;;;13.80;71.40;;;;;;2231574;56;21012;-72
2023/05/02 01:43:56;;;;;;;4.00;2.55;;;13.80;71.40;;;;;;2232137;56;21005;-71
2023/05/02 01:46:26;;;;;;;3.85;2.40;;;13.80;71.20;;;;;;2231545;56;21009;-70
2023/05/02 01:48:52;;;;;;;4.32;2.30;;;13.80;71.50;;;;;;2454634;55;20965;-69
2023/05/02 01:51:19;;;;;;;4.10;2.37;;;13.80;71.50;;;;;;2231606;56;20988;-68
2023/05/02 01:53:45;;;;;;;3.60;2.10;;;13.70;71.40;;;;;;2453859;55;21056;-69
2023/05/02 01:56:14;;;;;;;3.62;2.05;;;13.70;71.40;;;;;;2232206;56;21012;-71
2023/05/02 01:58:40;;;;;;;3.47;2.10;;;13.70;71.30;;;;;;2453609;55;20960;-71
2023/05/02 02:01:07;;;;;;;3.67;2.08;;;13.70;71.40;;;;;;2454215;55;21557;-69
2023/05/02 02:03:33;;;;;;;3.42;2.05;;;13.70;71.40;;;;;;2231283;56;20979;-71
2023/05/02 02:05:59;;;;;;;3.72;2.10;;;13.60;71.20;;;;;;2231929;56;20953;-69
2023/05/02 02:08:26;;;;;;;2.90;1.80;;;13.60;71.30;;;;;;2231456;56;20983;-71
2023/05/02 02:11:02;;;;;;;3.70;2.00;;;13.60;71.30;;;;;;2231940;56;20964;-71
2023/05/02 02:13:32;;;;;;;3.65;2.10;;;13.60;71.00;;;;;;2230504;56;20973;-72
2023/05/02 02:16:04;;;;;;;4.50;2.47;;;13.50;71.20;;;;;;2237273;56;21857;-70
2023/05/02 02:18:34;;;;;;;3.10;2.00;;;13.50;71.30;;;;;;2454726;55;21033;-69
2023/05/02 02:21:00;;;;;;;3.62;2.30;;;13.50;71.40;;;;;;2456257;55;21418;-70
2023/05/02 02:23:27;;;;;;;3.20;1.80;;;13.50;71.50;;;;;;2232927;56;21024;-69
2023/05/02 02:25:54;;;;;;;3.55;2.12;;;13.40;71.40;;;;;;2232099;56;20949;-68
2023/05/02 02:28:23;;;;;;;3.20;1.90;;;13.40;71.40;;;;;;2453287;55;20989;-72
2023/05/02 02:30:50;;;;;;;2.92;1.60;;;13.40;71.30;;;;;;2454225;55;21083;-70
2023/05/02 02:33:17;;;;;;;3.12;1.95;;;13.40;71.40;;;;;;2231278;56;21005;-71
2023/05/02 02:35:51;;;;;;;3.67;1.87;;;13.30;71.30;;;;;;2453436;55;21009;-71
2023/05/02 02:38:33;;;;;;;3.83;2.12;;;13.30;71.20;;;;;;2231020;56;20980;-68
2023/05/02 02:41:27;;;;;;;5.82;2.00;;;13.30;70.90;;;;;;2232991;56;21454;-69
2023/05/02 02:44:00;;;;;;;4.20;1.95;;;13.30;70.80;;;;;;2232048;56;21084;-69
2023/05/02 02:59:51;;;;;;;3.10;1.80;;;13.30;71.20;;;;;;2459570;55;21020;-70
2023/05/02 03:02:31;;;;;;;2.67;1.42;;;13.20;70.20;;;;;;2544126;52;23674;-72
2023/05/02 03:04:57;;;;;;;4.35;1.83;;;13.10;71.30;;;;;;2334924;54;21051;-70
2023/05/02 03:07:24;;;;;;;3.28;2.10;;;13.10;71.50;;;;;;2343009;53;21530;-72
2023/05/02 03:09:51;;;;;;;3.67;2.20;;;12.90;71.40;;;;;;2366839;53;20910;-72
2023/05/02 03:12:17;;;;;;;3.90;2.70;;;13.10;71.80;;;;;;2377133;53;21083;-71
2023/05/02 03:14:44;;;;;;;3.87;2.80;;;13.00;71.80;;;;;;2633681;51;20973;-69
2023/05/02 03:17:10;;;;;;;4.32;2.85;;;13.00;72.00;;;;;;2367215;53;20918;-71
2023/05/02 03:19:37;;;;;;;4.75;3.15;;;13.00;72.10;;;;;;2366276;53;21978;-71
2023/05/02 03:22:03;;;;;;;4.97;3.20;;;13.00;72.20;;;;;;2367249;53;20929;-71
2023/05/02 03:24:30;;;;;;;4.18;2.92;;;13.00;72.30;;;;;;2366502;53;21364;-72
2023/05/02 03:26:57;;;;;;;4.50;3.25;;;13.00;72.40;;;;;;2367309;53;20945;-72
2023/05/02 03:29:24;;;;;;;4.45;2.95;;;13.00;72.50;;;;;;2366837;53;21017;-72
2023/05/02 03:31:51;;;;;;;5.32;2.95;;;13.00;72.60;;;;;;2367068;53;20945;-72
2023/05/02 03:34:20;;;;;;;4.85;3.17;;;13.10;72.80;;;;;;2366779;53;21438;-70
2023/05/02 03:36:46;;;;;;;5.30;3.17;;;13.10;72.90;;;;;;2625299;52;20956;-69
2023/05/02 03:39:13;;;;;;;4.75;3.22;;;13.10;73.00;;;;;;2634253;51;21025;-72
2023/05/02 03:41:41;;;;;;;4.10;2.85;;;13.10;73.00;;;;;;2618252;52;20965;-69
2023/05/02 03:44:09;;;;;;;5.65;3.40;;;13.20;73.20;;;;;;2340423;53;20897;-71
2023/05/02 03:46:36;;;;;;;4.45;2.92;;;13.20;73.20;;;;;;2339081;53;21025;-70
2023/05/02 03:49:02;;;;;;;3.85;2.55;;;13.20;73.30;;;;;;2351199;53;21053;-71
2023/05/02 03:51:32;;;;;;;4.03;2.62;;;13.20;73.20;;;;;;2370682;52;20956;-70
2023/05/02 03:54:00;;;;;;;4.90;2.67;;;13.30;73.30;;;;;;2605851;52;20938;-66
2023/05/02 03:56:26;;;;;;;4.03;2.50;;;13.30;73.30;;;;;;2350929;52;20975;-68
2023/05/02 03:58:53;;;;;;;4.32;2.92;;;13.30;73.30;;;;;;2590833;53;20982;-70
2023/05/02 04:01:19;;;;;;;4.80;2.78;;;13.40;73.30;;;;;;2343878;53;20912;-71
2023/05/02 04:03:45;;;;;;;4.25;3.00;;;13.40;73.20;;;;;;2590592;53;20958;-70
2023/05/02 04:06:12;;;;;;;4.40;2.62;;;13.40;73.10;;;;;;2590923;53;20911;-72
2023/05/02 04:08:38;;;;;;;4.53;2.95;;;13.40;73.00;;;;;;2343377;53;21556;-70
2023/05/02 04:11:05;;;;;;;4.00;2.42;;;13.40;72.90;;;;;;2597273;52;20949;-72
2023/05/02 04:13:34;;;;;;;5.28;3.05;;;13.50;72.90;;;;;;2363997;53;20978;-72
2023/05/02 04:16:01;;;;;;;3.28;2.00;;;13.50;72.80;;;;;;2371612;53;20958;-71
2023/05/02 04:18:27;;;;;;;4.00;2.60;;;13.50;72.80;;;;;;2623546;52;20998;-69
2023/05/02 04:20:53;;;;;;;4.35;2.62;;;13.50;72.60;;;;;;2371281;53;20942;-71
2023/05/02 04:23:20;;;;;;;4.60;3.05;;;13.40;72.40;;;;;;2613162;52;20965;-71
2023/05/02 04:25:52;;;;;;;3.95;2.50;;;13.40;72.30;;;;;;2367244;53;20926;-69
2023/05/02 04:28:20;;;;;;;4.28;2.62;;;13.40;72.00;;;;;;2371424;53;20934;-71
2023/05/02 04:30:48;;;;;;;4.20;2.72;;;13.40;72.20;;;;;;2623601;52;21402;-72
2023/05/02 04:33:14;;;;;;;4.30;2.58;;;13.40;72.10;;;;;;2623547;52;21355;-70
2023/05/02 04:35:41;;;;;;;4.43;2.87;;;13.40;72.10;;;;;;2369401;53;21077;-72
2023/05/02 04:38:07;;;;;;;4.05;2.53;;;13.30;72.00;;;;;;2371047;53;20948;-70
2023/05/02 04:40:34;;;;;;;5.05;2.95;;;13.30;72.00;;;;;;2623431;52;20984;-70
2023/05/02 04:43:00;;;;;;;3.67;2.42;;;13.30;71.90;;;;;;2623941;52;20958;-71
2023/05/02 04:45:26;;;;;;;4.50;3.03;;;13.30;71.90;;;;;;2370406;53;21458;-72
2023/05/02 04:47:53;;;;;;;4.95;3.60;;;13.30;71.90;;;;;;2624301;52;21446;-72
2023/05/02 04:50:19;;;;;;;4.75;3.08;;;13.20;71.80;;;;;;2370857;53;20938;-72
2023/05/02 04:52:47;;;;;;;4.45;2.87;;;13.20;71.80;;;;;;2370422;53;20989;-71
2023/05/02 04:55:13;;;;;;;4.20;2.70;;;13.20;71.90;;;;;;2624175;52;21013;-70
2023/05/02 04:57:40;;;;;;;4.40;2.90;;;13.20;71.90;;;;;;2369823;53;20953;-71
2023/05/02 05:00:07;;;;;;;5.20;3.22;;;13.20;72.00;;;;;;2343049;54;20925;-72
2023/05/02 05:02:34;;;;;;;6.28;3.17;;;13.20;72.00;;;;;;2340367;54;20965;-72
2023/05/02 05:05:01;;;;;;;5.05;3.20;;;13.10;71.90;;;;;;2350692;53;20978;-71
2023/05/02 05:07:33;;;;;;;4.50;3.33;;;13.10;72.00;;;;;;2622783;52;21080;-69
2023/05/02 05:10:00;;;;;;;4.62;3.17;;;13.10;71.90;;;;;;2624220;52;20971;-72
2023/05/02 05:12:26;;;;;;;4.75;2.87;;;13.10;72.20;;;;;;2608598;52;20902;-72
2023/05/02 05:14:52;;;;;;;4.62;2.87;;;13.10;72.20;;;;;;2370030;53;21830;-71
2023/05/02 05:17:19;;;;;;;4.53;2.90;;;13.10;72.20;;;;;;2370241;53;21380;-72
2023/05/02 05:19:47;;;;;;;3.83;2.62;;;13.10;72.30;;;;;;2622672;52;20958;-69
2023/05/02 05:22:14;;;;;;;5.07;3.50;;;13.10;72.40;;;;;;2622744;52;21000;-72
2023/05/02 05:24:40;;;;;;;5.93;3.87;;;13.10;72.60;;;;;;2369255;53;21363;-72
2023/05/02 05:27:06;;;;;;;5.68;3.72;;;13.10;72.60;;;;;;2623289;52;20922;-70
2023/05/02 05:29:33;;;;;;;5.00;3.80;;;13.10;72.70;;;;;;2370123;53;20922;-72
2023/05/02 05:32:04;;;;;;;5.80;3.75;;;13.10;72.80;;;;;;2623964;52;21005;-71
2023/05/02 05:34:30;;;;;;;5.93;4.28;;;13.10;72.90;;;;;;2369593;53;21623;-70
2023/05/02 05:36:56;;;;;;;7.37;5.43;;;13.10;73.00;;;;;;2373677;53;20928;-72
2023/05/02 05:39:24;;;;;;;20.80;13.25;;;13.20;73.20;;;;;;2369949;53;20969;-70
2023/05/02 05:41:50;;;;;;;33.75;23.20;;;13.20;73.30;;;;;;2623135;52;20973;-71
2023/05/02 05:44:20;;;;;;;30.50;20.55;;;13.20;73.50;;;;;;2370782;53;20898;-70
2023/05/02 05:46:47;;;;;;;30.65;19.17;;;13.10;73.50;;;;;;2370081;53;21024;-69
2023/05/02 05:49:15;;;;;;;23.17;16.15;;;13.30;73.80;;;;;;2623479;52;20993;-72
2023/05/02 05:51:43;;;;;;;19.17;13.35;;;13.30;73.90;;;;;;2622360;52;20920;-72
2023/05/02 05:54:10;;;;;;;15.68;11.60;;;13.30;74.00;;;;;;2623052;52;20934;-72
2023/05/02 05:56:36;;;;;;;16.40;12.05;;;13.40;74.20;;;;;;2622646;52;21408;-71
2023/05/02 05:59:02;;;;;;;15.18;10.25;;;13.40;74.30;;;;;;2623839;52;21513;-71
2023/05/02 06:01:29;;;;;;;13.40;9.52;;;13.50;74.50;;;;;;2622235;52;21077;-70
2023/05/02 06:03:55;;;;;;;15.13;10.63;;;13.50;74.70;;;;;;2614062;52;21553;-72
2023/05/02 06:06:21;;;;;;;13.05;9.55;;;13.60;74.90;;;;;;2608317;52;20978;-70
2023/05/02 06:08:48;;;;;;;14.13;9.10;;;13.60;75.00;;;;;;2369892;53;21309;-70
2023/05/02 06:11:15;;;;;;;13.15;10.32;;;13.70;75.10;;;;;;2370804;53;20945;-68
2023/05/02 06:13:41;;;;;;;11.90;8.90;;;13.80;75.30;;;;;;2370225;53;20970;-69
2023/05/02 06:16:07;;;;;;;10.65;8.07;;;13.80;75.30;;;;;;2371415;53;20921;-69
2023/05/02 06:18:33;;;;;;;11.45;8.65;;;13.80;75.40;;;;;;2622496;52;21577;-67
2023/05/02 06:21:03;;;;;;;11.70;8.52;;;13.90;75.60;;;;;;2622956;52;21923;-69
2023/05/02 06:23:30;;;;;;;13.00;8.18;;;14.00;75.60;;;;;;2374952;53;21476;-67
2023/05/02 06:26:01;;;;;;;9.88;7.40;;;14.00;75.70;;;;;;2370294;53;21510;-70
2023/05/02 06:28:28;;;;;;;13.98;9.85;;;14.10;75.70;;;;;;2622731;52;20974;-71
2023/05/02 06:31:01;;;;;;;11.63;8.90;;;14.20;75.90;;;;;;2623851;52;21019;-66
2023/05/02 06:33:31;;;;;;;11.02;8.40;;;14.30;75.60;;;;;;2621879;52;20895;-68
2023/05/02 06:35:58;;;;;;;13.13;9.30;;;14.30;75.80;;;;;;2623196;52;21715;-67
2023/05/02 06:38:26;;;;;;;12.25;8.35;;;14.40;75.90;;;;;;2370156;53;20950;-67
2023/05/02 06:40:55;;;;;;;10.55;8.50;;;14.50;75.80;;;;;;2623601;52;20979;-69
2023/05/02 06:43:22;;;;;;;10.85;8.00;;;14.50;75.80;;;;;;2623521;52;20954;-68
2023/05/02 06:45:48;;;;;;;12.75;9.07;;;14.60;75.90;;;;;;2370355;53;20966;-69
2023/05/02 06:48:18;;;;;;;12.68;9.10;;;14.70;76.00;;;;;;2371334;53;20911;-70
2023/05/02 06:50:45;;;;;;;12.48;8.43;;;14.70;76.00;;;;;;2622952;52;21579;-69
2023/05/02 06:53:12;;;;;;;11.32;8.07;;;14.80;76.10;;;;;;2359371;53;20930;-69
2023/05/02 06:55:39;;;;;;;14.02;10.05;;;14.80;76.00;;;;;;2372870;53;20912;-69
2023/05/02 06:58:05;;;;;;;11.43;8.70;;;14.90;76.10;;;;;;2373936;53;21154;-71
2023/05/02 07:00:31;;;;;;;10.52;8.07;;;14.90;76.10;;;;;;2369922;53;20989;-71
2023/05/02 07:02:58;;;;;;;10.43;7.93;;;15.00;76.20;;;;;;2623327;52;21025;-72
2023/05/02 07:05:24;;;;;;;11.38;8.13;;;15.10;76.30;;;;;;2370117;53;20938;-69
2023/05/02 07:07:51;;;;;;;11.18;8.55;;;15.20;76.50;;;;;;2369810;53;20941;-69
2023/05/02 07:10:18;;;;;;;10.48;8.05;;;15.30;76.60;;;;;;2371106;53;20922;-70
2023/05/02 07:12:45;;;;;;;9.70;7.70;;;15.20;76.50;;;;;;2622839;52;21535;-70
2023/05/02 07:15:12;;;;;;;9.35;7.18;;;15.40;76.70;;;;;;2623726;52;20946;-70
2023/05/02 07:17:39;;;;;;;11.00;8.20;;;15.50;76.80;;;;;;2369998;53;20965;-69
2023/05/02 07:20:08;;;;;;;10.90;7.50;;;15.60;76.90;;;;;;2623851;52;21296;-69
2023/05/02 07:22:34;;;;;;;9.65;7.40;;;15.70;77.00;;;;;;2621962;52;21022;-68
2023/05/02 07:25:01;;;;;;;8.80;6.53;;;15.80;77.20;;;;;;2623631;52;21795;-70
2023/05/02 07:27:28;;;;;;;10.27;7.90;;;15.80;77.30;;;;;;2622994;52;20954;-69
2023/05/02 07:29:55;;;;;;;8.50;6.72;;;15.90;77.40;;;;;;2370791;53;20910;-71
2023/05/02 07:32:21;;;;;;;10.52;7.40;;;16.00;77.60;;;;;;2622997;52;20899;-69
2023/05/02 07:34:48;;;;;;;11.27;8.55;;;16.20;77.80;;;;;;2622794;52;20903;-71
2023/05/02 07:37:14;;;;;;;10.27;7.97;;;16.30;78.00;;;;;;2374250;53;21531;-67
2023/05/02 07:39:40;;;;;;;10.43;7.60;;;16.40;78.00;;;;;;2345952;53;21749;-69
2023/05/02 07:42:07;;;;;;;10.32;8.43;;;16.50;77.80;;;;;;2622761;52;21478;-69
2023/05/02 07:44:34;;;;;;;9.68;7.78;;;16.60;77.50;;;;;;2370148;53;20942;-70
2023/05/02 07:47:05;;;;;;;10.80;8.45;;;16.70;77.30;;;;;;2623883;52;20966;-69
2023/05/02 07:49:31;;;;;;;10.05;7.80;;;16.70;76.80;;;;;;2370170;53;21245;-70
2023/05/02 07:51:57;;;;;;;11.30;8.05;;;16.80;76.60;;;;;;2623723;52;20954;-70
2023/05/02 07:54:25;;;;;;;11.48;8.05;;;16.90;76.50;;;;;;2370567;53;20914;-70
2023/05/02 07:56:51;;;;;;;11.18;8.45;;;16.90;76.20;;;;;;2371176;53;20962;-69
2023/05/02 07:59:17;;;;;;;10.63;8.25;;;17.00;76.00;;;;;;2624254;52;21001;-71
2023/05/02 08:01:45;;;;;;;9.02;7.22;;;17.00;75.90;;;;;;2623306;52;20929;-69
2023/05/02 08:04:11;;;;;;;11.07;8.65;;;17.00;75.70;;;;;;2623834;52;20962;-70
2023/05/02 08:06:42;;;;;;;10.38;8.25;;;17.10;75.80;;;;;;2622584;52;21654;-69
2023/05/02 08:09:09;;;;;;;13.35;8.27;;;17.10;75.60;;;;;;2370893;53;21245;-70
2023/05/02 08:11:35;;;;;;;10.50;7.68;;;17.10;75.80;;;;;;2622627;52;20946;-72
2023/05/02 08:14:02;;;;;;;8.93;7.03;;;17.20;75.80;;;;;;2623812;52;20985;-70
2023/05/02 08:16:28;;;;;;;9.18;6.90;;;17.20;75.70;;;;;;2370656;53;20902;-70
2023/05/02 08:18:57;;;;;;;9.70;7.72;;;17.30;75.70;;;;;;2622465;52;21023;-72
2023/05/02 08:21:24;;;;;;;11.68;8.75;;;17.30;75.40;;;;;;2623407;52;21737;-70
2023/05/02 08:23:50;;;;;;;13.62;10.18;;;17.30;75.30;;;;;;2373073;53;21004;-70
2023/05/02 08:26:17;;;;;;;10.50;8.48;;;17.40;75.50;;;;;;2623165;52;20923;-72
2023/05/02 08:28:45;;;;;;;10.95;8.13;;;17.40;75.70;;;;;;2370236;53;21758;-70
2023/05/02 08:31:11;;;;;;;10.20;8.35;;;17.50;75.50;;;;;;2623628;52;20990;-71
2023/05/02 08:33:38;;;;;;;10.77;8.65;;;17.50;75.60;;;;;;2622852;52;21868;-71
2023/05/02 08:36:13;;;;;;;11.45;7.97;;;17.50;75.40;;;;;;2358269;53;20937;-71
2023/05/02 08:38:40;;;;;;;8.85;7.45;;;17.60;74.60;;;;;;2369862;53;21036;-70
2023/05/02 08:41:16;;;;;;;8.60;6.93;;;17.60;75.20;;;;;;2370583;53;21049;-71
2023/05/02 08:43:45;;;;;;;10.63;8.85;;;17.70;75.00;;;;;;2370603;53;20961;-72
2023/05/02 08:46:13;;;;;;;9.95;7.68;;;17.70;75.60;;;;;;2623858;52;20930;-70
2023/05/02 08:48:43;;;;;;;11.10;8.15;;;17.70;75.50;;;;;;2370382;53;21045;-70
2023/05/02 08:51:14;;;;;;;9.13;7.87;;;17.80;75.40;;;;;;2623824;52;20918;-71
2023/05/02 08:53:40;;;;;;;9.52;7.40;;;17.80;75.20;;;;;;2370428;53;21468;-71
2023/05/02 08:56:07;;;;;;;9.82;7.72;;;17.90;75.90;;;;;;2371030;53;21739;-71
2023/05/02 08:58:38;;;;;;;10.75;8.98;;;17.90;76.30;;;;;;2370718;53;21391;-70
2023/05/02 09:01:15;;;;;;;9.73;7.65;;;18.00;76.10;;;;;;2623658;52;20946;-71
2023/05/02 09:03:42;;;;;;;10.73;8.20;;;18.10;75.70;;;;;;2373265;53;21464;-71
2023/05/02 09:06:11;;;;;;;10.25;8.32;;;18.20;76.70;;;;;;2612144;52;21529;-71
2023/05/02 09:08:40;;;;;;;12.45;9.93;;;18.20;76.70;;;;;;2606978;52;20941;-71
2023/05/02 09:11:08;;;;;;;13.60;10.38;;;18.30;77.20;;;;;;2624424;52;21005;-71
2023/05/02 09:13:41;;;;;;;11.68;9.65;;;18.40;77.60;;;;;;2370431;52;20930;-71
2023/05/02 09:16:09;;;;;;;11.82;9.77;;;18.50;77.70;;;;;;2623980;52;20993;-71
2023/05/02 09:18:54;;;;;;;12.77;9.68;;;18.60;78.50;;;;;;2370907;53;21076;-71
2023/05/02 09:21:40;;;;;;;10.23;8.52;;;18.80;78.60;;;;;;2624029;52;20946;-71
2023/05/02 09:24:18;;;;;;;8.65;7.30;;;18.90;76.70;;;;;;2624348;52;20942;-71
2023/05/02 09:27:04;;;;;;;10.20;8.10;;;19.00;76.80;;;;;;2371472;53;22021;-71
2023/05/02 09:29:34;;;;;;;9.35;7.93;;;19.10;76.30;;;;;;2624570;52;20933;-71
2023/05/02 09:32:03;;;;;;;11.07;8.45;;;19.20;77.40;;;;;;2624580;52;20969;-71
2023/05/02 09:34:30;;;;;;;10.18;8.40;;;19.30;77.30;;;;;;2624479;52;20974;-71
2023/05/02 09:36:57;;;;;;;15.43;10.40;;;19.40;77.70;;;;;;2374812;53;20895;-71
2023/05/02 09:39:25;;;;;;;12.55;10.07;;;19.50;77.80;;;;;;2372220;53;20906;-71
2023/05/02 09:41:54;;;;;;;11.40;8.48;;;19.60;77.50;;;;;;2627348;52;21029;-71
2023/05/02 09:44:33;;;;;;;12.70;10.18;;;19.60;77.10;;;;;;2380959;53;20992;-71
2023/05/02 09:47:01;;;;;;;11.70;9.50;;;19.70;77.10;;;;;;2612195;52;20949;-70
2023/05/02 09:49:47;;;;;;;12.75;9.55;;;19.80;77.30;;;;;;2625515;52;20990;-70
2023/05/02 09:52:15;;;;;;;12.63;9.40;;;19.90;75.60;;;;;;2625072;52;20998;-70
2023/05/02 09:54:41;;;;;;;12.68;9.52;;;19.90;77.10;;;;;;2623627;52;20923;-71
2023/05/02 09:57:09;;;;;;;10.30;8.27;;;20.00;77.00;;;;;;2374220;53;21696;-70
2023/05/02 09:59:37;;;;;;;11.85;9.90;;;20.10;76.90;;;;;;2622282;52;20966;-70
2023/05/02 10:02:08;;;;;;;13.85;10.70;;;20.20;76.80;;;;;;2371666;53;20926;-71
2023/05/02 10:04:36;;;;;;;11.93;9.48;;;20.20;76.10;;;;;;2371630;53;21017;-71
2023/05/02 10:07:03;;;;;;;11.90;9.93;;;20.20;76.00;;;;;;2623395;52;21616;-69
2023/05/02 10:09:31;;;;;;;12.07;9.48;;;20.30;76.10;;;;;;2370766;53;21072;-71
2023/05/02 10:11:57;;;;;;;12.93;9.85;;;20.30;76.10;;;;;;2371091;53;20930;-70
2023/05/02 10:14:27;;;;;;;13.65;10.77;;;20.40;76.30;;;;;;2624563;52;21057;-71
2023/05/02 10:17:05;;;;;;;12.68;9.35;;;20.50;76.30;;;;;;2624189;52;21902;-71
2023/05/02 10:19:53;;;;;;;12.95;9.98;;;20.60;75.10;;;;;;2371253;53;20974;-71
2023/05/02 10:22:21;;;;;;;14.85;10.40;;;20.60;74.20;;;;;;2624190;52;21445;-71
2023/05/02 10:24:48;;;;;;;13.55;10.20;;;20.70;76.20;;;;;;2624100;52;21264;-70
2023/05/02 10:27:15;;;;;;;12.32;9.52;;;20.80;76.00;;;;;;2625320;52;20958;-71
2023/05/02 10:29:43;;;;;;;14.05;10.60;;;20.80;75.90;;;;;;2371294;53;21066;-70
2023/05/02 10:32:09;;;;;;;14.48;10.75;;;20.90;75.90;;;;;;2371541;53;21049;-71
2023/05/02 10:34:35;;;;;;;15.30;11.43;;;20.90;75.80;;;;;;2623618;52;21545;-70
2023/05/02 10:37:05;;;;;;;13.45;10.25;;;21.00;76.00;;;;;;2624108;52;20982;-70
2023/05/02 10:39:31;;;;;;;13.30;10.35;;;21.00;76.10;;;;;;2623665;52;20918;-71
2023/05/02 10:41:58;;;;;;;15.75;11.10;;;21.00;76.10;;;;;;2623470;52;20902;-70
2023/05/02 10:44:34;;;;;;;14.52;10.90;;;21.20;76.30;;;;;;2371285;53;21014;-70
2023/05/02 10:47:02;;;;;;;13.93;10.70;;;21.20;74.90;;;;;;2371350;53;20925;-71
2023/05/02 10:49:30;;;;;;;11.90;9.13;;;21.30;76.50;;;;;;2623827;52;20942;-71
2023/05/02 10:51:57;;;;;;;12.05;9.63;;;21.40;76.50;;;;;;2374877;52;20908;-70
2023/05/02 10:54:24;;;;;;;13.35;8.95;;;21.50;76.30;;;;;;2371067;53;20954;-71
2023/05/02 10:57:04;;;;;;;15.43;10.77;;;21.50;75.90;;;;;;2623675;52;20929;-71
2023/05/02 10:59:41;;;;;;;13.88;10.70;;;21.60;74.30;;;;;;2371737;53;20985;-72
2023/05/02 11:05:58;;;;;;;15.00;11.35;;;21.60;74.80;;;;;;2371838;53;20894;-72
2023/05/02 11:08:33;;;;;;;11.07;8.43;;;21.80;73.30;;;;;;2373020;53;21029;-72
2023/05/02 11:11:37;;;;;;;13.07;10.15;;;21.80;74.20;;;;;;2624084;52;21786;-71
2023/05/02 11:14:03;;;;;;;12.23;8.95;;;21.90;72.80;;;;;;2623432;52;20957;-70
2023/05/02 11:17:50;;;;;;;14.48;10.48;;;21.90;74.80;;;;;;2623871;52;20978;-72
2023/05/02 11:20:19;;;;;;;13.50;9.23;;;21.90;72.40;;;;;;2624257;52;20964;-70
2023/05/02 11:22:46;;;;;;;12.55;9.63;;;22.00;74.70;;;;;;2373554;53;20911;-70
2023/05/02 11:25:29;;;;;;;11.40;9.18;;;22.00;75.20;;;;;;2623931;52;21460;-69
2023/05/02 11:27:58;;;;;;;12.07;9.30;;;22.10;72.80;;;;;;2371268;53;21010;-70
2023/05/02 11:30:40;;;;;;;12.77;9.73;;;22.10;74.70;;;;;;2371183;53;20934;-70
2023/05/02 11:33:10;;;;;;;;;;;22.10;72.40;;;;;;2628303;52;20993;-71
2023/05/02 11:35:40;;;;;;;13.70;9.77;;;22.10;72.80;;;;;;2370845;53;20066;-71
2023/05/02 11:38:23;;;;;;;12.93;9.35;;;22.10;73.20;;;;;;2370943;53;20950;-69
2023/05/02 11:40:50;;;;;;;;;;;22.10;71.90;;;;;;2378111;53;20926;-71
2023/05/02 11:43:17;;;;;;;12.52;9.73;;;22.10;72.40;;;;;;2622590;52;20065;-72
2023/05/02 11:45:44;;;;;;;12.60;9.93;;;22.10;73.70;;;;;;2623539;52;20949;-70
2023/05/02 11:48:15;;;;;;;11.80;9.57;;;22.10;73.20;;;;;;2624274;52;21469;-69
2023/05/02 11:50:56;;;;;;;10.82;8.18;;;22.10;72.20;;;;;;2370807;53;21001;-69
2023/05/02 11:53:27;;;;;;;11.12;8.60;;;22.10;72.00;;;;;;2371294;53;20962;-70
2023/05/02 11:56:03;;;;;;;10.18;8.68;;;22.00;73.00;;;;;;2624254;52;20970;-70
2023/05/02 11:58:33;;;;;;;11.25;9.30;;;22.10;72.20;;;;;;2370892;53;21285;-70
2023/05/02 12:01:15;;;;;;;12.15;9.60;;;22.10;73.80;;;;;;2623665;52;20926;-72
2023/05/02 12:03:41;;;;;;;11.53;8.70;;;22.10;71.50;;;;;;2370901;53;21041;-70
2023/05/02 12:06:25;;;;;;;11.07;8.93;;;22.10;73.50;;;;;;2370915;53;21450;-71
2023/05/02 12:09:06;;;;;;;10.73;8.57;;;22.10;71.40;;;;;;2623575;52;20941;-70
2023/05/02 12:11:33;;;;;;;10.05;8.48;;;22.20;72.70;;;;;;2370446;53;20986;-71
2023/05/02 12:14:00;;;;;;;10.93;7.78;;;22.20;73.40;;;;;;2624302;52;20957;-72
2023/05/02 12:16:26;;;;;;;11.82;8.20;;;22.20;73.10;;;;;;2624372;52;20986;-71
2023/05/02 12:18:55;;;;;;;10.60;8.00;;;22.20;73.00;;;;;;2371135;53;20926;-70
2023/05/02 12:21:22;;;;;;;10.10;7.43;;;22.20;73.00;;;;;;2370670;53;20914;-69
2023/05/02 12:23:48;;;;;;;11.00;9.20;;;22.20;73.00;;;;;;2370560;53;22316;-70
2023/05/02 12:26:23;;;;;;;10.63;8.40;;;22.20;73.20;;;;;;2623849;52;20966;-71
2023/05/02 12:28:57;;;;;;;9.43;7.85;;;22.30;72.10;;;;;;2623129;52;21535;-69
2023/05/02 12:31:24;;;;;;;10.05;7.55;;;22.30;72.70;;;;;;2370841;53;20926;-68
2023/05/02 12:33:51;;;;;;;8.98;6.93;;;22.30;72.90;;;;;;2623025;52;20910;-70
2023/05/02 12:36:17;;;;;;;10.82;7.93;;;22.30;73.10;;;;;;2623552;52;20972;-70
2023/05/02 12:38:55;;;;;;;10.93;7.55;;;22.30;72.80;;;;;;2622130;52;20954;-71
2023/05/02 12:41:35;;;;;;;9.57;7.72;;;22.40;72.20;;;;;;2622844;52;21412;-70
2023/05/02 12:44:02;;;;;;;10.13;8.10;;;22.40;71.90;;;;;;2370784;53;21005;-70
2023/05/02 12:46:30;;;;;;;10.45;8.18;;;22.40;73.20;;;;;;2623581;52;20993;-70
2023/05/02 12:49:09;;;;;;;9.60;7.85;;;22.40;72.90;;;;;;2370849;53;21044;-70
2023/05/02 12:51:35;;;;;;;10.50;8.15;;;22.40;70.80;;;;;;2622837;52;20921;-70
2023/05/02 12:54:02;;;;;;;11.35;8.68;;;22.40;72.60;;;;;;2623505;52;20986;-71
2023/05/02 12:56:31;;;;;;;10.85;8.38;;;22.40;72.30;;;;;;2371103;53;20919;-71
2023/05/02 12:59:02;;;;;;;8.18;6.80;;;22.40;72.20;;;;;;2370323;53;20926;-70
2023/05/02 13:01:30;;;;;;;11.88;7.62;;;22.40;72.20;;;;;;2622640;52;20953;-71
2023/05/02 13:03:56;;;;;;;10.30;6.87;;;22.40;72.20;;;;;;2622810;52;21006;-72
2023/05/02 13:06:24;;;;;;;9.40;7.47;;;22.40;72.20;;;;;;2622968;52;20914;-71
2023/05/02 13:08:51;;;;;;;8.60;6.93;;;22.40;71.70;;;;;;2370615;53;20945;-72
2023/05/02 13:11:19;;;;;;;10.02;7.35;;;22.40;71.90;;;;;;2371041;53;20962;-70
2023/05/02 13:13:45;;;;;;;8.98;6.75;;;22.40;71.70;;;;;;2373630;53;21003;-70